sensor_id;sensor_type;location;lat;lon;timestamp;P1;durP1;ratioP1;P2;durP2;ratioP2
72085;SDS011;64750;52.134;5.424;2024-02-21T00:02:21;5.93;;;2.83;;
72085;SDS011;64750;52.134;5.424;2024-02-21T00:04:48;4.38;;;2.28;;
72085;SDS011;64750;52.134;5.424;2024-02-21T00:07:15;6.35;;;2.47;;
72085;SDS011;64750;52.134;5.424;2024-02-21T00:09:41;10.10;;;2.70;;
72085;SDS011;64750;52.134;5.424;2024-02-21T00:12:08;8.18;;;2.28;;
72085;SDS011;64750;52.134;5.424;2024-02-21T00:14:34;5.00;;;2.60;;
72085;SDS011;64750;52.134;5.424;2024-02-21T00:17:01;7.45;;;2.53;;
72085;SDS011;64750;52.134;5.424;2024-02-21T00:19:27;7.78;;;1.90;;
72085;SDS011;64750;52.134;5.424;2024-02-21T00:21:54;10.40;;;2.40;;
72085;SDS011;64750;52.134;5.424;2024-02-21T00:24:20;6.90;;;2.25;;
72085;SDS011;64750;52.134;5.424;2024-02-21T00:26:47;9.67;;;2.70;;
72085;SDS011;64750;52.134;5.424;2024-02-21T00:29:13;8.05;;;2.70;;
72085;SDS011;64750;52.134;5.424;2024-02-21T00:31:40;8.27;;;2.05;;
72085;SDS011;64750;52.134;5.424;2024-02-21T00:34:06;11.32;;;2.38;;
72085;SDS011;64750;52.134;5.424;2024-02-21T00:36:33;5.53;;;2.25;;
72085;SDS011;64750;52.134;5.424;2024-02-21T00:38:59;23.83;;;2.57;;
72085;SDS011;64750;52.134;5.424;2024-02-21T00:41:26;8.68;;;2.35;;
72085;SDS011;64750;52.134;5.424;2024-02-21T00:43:52;8.10;;;2.47;;
72085;SDS011;64750;52.134;5.424;2024-02-21T00:46:19;4.82;;;2.10;;
72085;SDS011;64750;52.134;5.424;2024-02-21T00:48:45;6.07;;;1.95;;
72085;SDS011;64750;52.134;5.424;2024-02-21T00:51:12;8.00;;;2.23;;
72085;SDS011;64750;52.134;5.424;2024-02-21T00:53:39;4.55;;;2.00;;
72085;SDS011;64750;52.134;5.424;2024-02-21T00:56:06;11.07;;;2.70;;
72085;SDS011;64750;52.134;5.424;2024-02-21T00:58:32;5.63;;;2.33;;
72085;SDS011;64750;52.134;5.424;2024-02-21T01:01:00;7.93;;;2.25;;
72085;SDS011;64750;52.134;5.424;2024-02-21T01:03:27;6.27;;;1.77;;
72085;SDS011;64750;52.134;5.424;2024-02-21T01:05:53;10.35;;;2.38;;
72085;SDS011;64750;52.134;5.424;2024-02-21T01:08:20;5.07;;;2.40;;
72085;SDS011;64750;52.134;5.424;2024-02-21T01:10:46;4.32;;;2.08;;
72085;SDS011;64750;52.134;5.424;2024-02-21T01:13:13;10.05;;;2.33;;
72085;SDS011;64750;52.134;5.424;2024-02-21T01:15:40;7.50;;;2.67;;
72085;SDS011;64750;52.134;5.424;2024-02-21T01:18:07;8.82;;;2.30;;
72085;SDS011;64750;52.134;5.424;2024-02-21T01:20:33;7.70;;;2.65;;
72085;SDS011;64750;52.134;5.424;2024-02-21T01:23:00;7.00;;;2.25;;
72085;SDS011;64750;52.134;5.424;2024-02-21T01:25:26;3.50;;;2.35;;
72085;SDS011;64750;52.134;5.424;2024-02-21T01:27:53;8.27;;;2.80;;
72085;SDS011;64750;52.134;5.424;2024-02-21T01:30:19;7.95;;;2.97;;
72085;SDS011;64750;52.134;5.424;2024-02-21T01:32:46;10.10;;;2.60;;
72085;SDS011;64750;52.134;5.424;2024-02-21T01:35:12;12.02;;;3.28;;
72085;SDS011;64750;52.134;5.424;2024-02-21T01:37:39;6.57;;;2.78;;
72085;SDS011;64750;52.134;5.424;2024-02-21T01:40:06;6.33;;;2.50;;
72085;SDS011;64750;52.134;5.424;2024-02-21T01:42:35;6.50;;;3.10;;
72085;SDS011;64750;52.134;5.424;2024-02-21T01:45:05;8.65;;;2.67;;
72085;SDS011;64750;52.134;5.424;2024-02-21T01:47:31;7.28;;;3.33;;
72085;SDS011;64750;52.134;5.424;2024-02-21T01:49:58;8.60;;;3.20;;
72085;SDS011;64750;52.134;5.424;2024-02-21T01:52:25;11.07;;;3.43;;
72085;SDS011;64750;52.134;5.424;2024-02-21T01:54:52;9.13;;;2.83;;
72085;SDS011;64750;52.134;5.424;2024-02-21T01:57:18;9.82;;;2.92;;
72085;SDS011;64750;52.134;5.424;2024-02-21T01:59:45;8.88;;;2.85;;
72085;SDS011;64750;52.134;5.424;2024-02-21T02:02:12;10.32;;;3.20;;
72085;SDS011;64750;52.134;5.424;2024-02-21T02:04:39;8.73;;;2.83;;
72085;SDS011;64750;52.134;5.424;2024-02-21T02:07:06;17.38;;;3.60;;
72085;SDS011;64750;52.134;5.424;2024-02-21T02:09:33;10.68;;;3.58;;
72085;SDS011;64750;52.134;5.424;2024-02-21T02:12:00;12.52;;;3.55;;
72085;SDS011;64750;52.134;5.424;2024-02-21T02:14:27;6.32;;;3.45;;
72085;SDS011;64750;52.134;5.424;2024-02-21T02:16:53;10.27;;;3.10;;
72085;SDS011;64750;52.134;5.424;2024-02-21T02:19:20;6.22;;;2.95;;
72085;SDS011;64750;52.134;5.424;2024-02-21T02:21:49;4.25;;;2.63;;
72085;SDS011;64750;52.134;5.424;2024-02-21T02:24:23;8.27;;;3.30;;
72085;SDS011;64750;52.134;5.424;2024-02-21T02:26:51;8.65;;;3.40;;
72085;SDS011;64750;52.134;5.424;2024-02-21T02:29:17;6.93;;;3.27;;
72085;SDS011;64750;52.134;5.424;2024-02-21T02:31:45;8.05;;;2.75;;
72085;SDS011;64750;52.134;5.424;2024-02-21T02:34:11;8.55;;;3.40;;
72085;SDS011;64750;52.134;5.424;2024-02-21T02:36:38;4.90;;;3.05;;
72085;SDS011;64750;52.134;5.424;2024-02-21T02:39:04;12.60;;;3.65;;
72085;SDS011;64750;52.134;5.424;2024-02-21T02:41:31;5.90;;;3.33;;
72085;SDS011;64750;52.134;5.424;2024-02-21T02:43:57;6.82;;;3.97;;
72085;SDS011;64750;52.134;5.424;2024-02-21T02:46:24;4.93;;;3.03;;
72085;SDS011;64750;52.134;5.424;2024-02-21T02:48:50;8.02;;;3.17;;
72085;SDS011;64750;52.134;5.424;2024-02-21T02:51:17;8.45;;;3.40;;
72085;SDS011;64750;52.134;5.424;2024-02-21T02:53:44;5.07;;;3.40;;
72085;SDS011;64750;52.134;5.424;2024-02-21T02:56:14;9.18;;;3.20;;
72085;SDS011;64750;52.134;5.424;2024-02-21T02:58:45;8.20;;;3.72;;
72085;SDS011;64750;52.134;5.424;2024-02-21T03:01:12;6.88;;;3.58;;
72085;SDS011;64750;52.134;5.424;2024-02-21T03:03:40;8.85;;;3.13;;
72085;SDS011;64750;52.134;5.424;2024-02-21T03:06:06;7.57;;;3.40;;
72085;SDS011;64750;52.134;5.424;2024-02-21T03:08:33;7.22;;;3.00;;
72085;SDS011;64750;52.134;5.424;2024-02-21T03:11:00;7.78;;;3.00;;
72085;SDS011;64750;52.134;5.424;2024-02-21T03:13:27;10.93;;;3.60;;
72085;SDS011;64750;52.134;5.424;2024-02-21T03:15:54;7.80;;;3.65;;
72085;SDS011;64750;52.134;5.424;2024-02-21T03:18:20;7.93;;;2.83;;
72085;SDS011;64750;52.134;5.424;2024-02-21T03:20:47;9.80;;;3.40;;
72085;SDS011;64750;52.134;5.424;2024-02-21T03:23:13;14.73;;;3.65;;
72085;SDS011;64750;52.134;5.424;2024-02-21T03:25:40;5.35;;;3.10;;
72085;SDS011;64750;52.134;5.424;2024-02-21T03:28:06;11.27;;;3.90;;
72085;SDS011;64750;52.134;5.424;2024-02-21T03:30:32;5.33;;;2.67;;
72085;SDS011;64750;52.134;5.424;2024-02-21T03:33:00;8.63;;;3.03;;
72085;SDS011;64750;52.134;5.424;2024-02-21T03:35:27;6.13;;;3.25;;
72085;SDS011;64750;52.134;5.424;2024-02-21T03:37:54;7.03;;;3.53;;
72085;SDS011;64750;52.134;5.424;2024-02-21T03:40:20;8.38;;;3.15;;
72085;SDS011;64750;52.134;5.424;2024-02-21T03:42:47;6.07;;;3.20;;
72085;SDS011;64750;52.134;5.424;2024-02-21T03:45:13;5.38;;;3.05;;
72085;SDS011;64750;52.134;5.424;2024-02-21T03:47:40;8.93;;;3.95;;
72085;SDS011;64750;52.134;5.424;2024-02-21T03:50:06;6.35;;;3.95;;
72085;SDS011;64750;52.134;5.424;2024-02-21T03:52:33;13.48;;;4.13;;
72085;SDS011;64750;52.134;5.424;2024-02-21T03:55:00;9.30;;;3.90;;
72085;SDS011;64750;52.134;5.424;2024-02-21T03:57:26;15.10;;;3.88;;
72085;SDS011;64750;52.134;5.424;2024-02-21T03:59:52;8.93;;;3.80;;
72085;SDS011;64750;52.134;5.424;2024-02-21T04:02:19;8.20;;;4.10;;
72085;SDS011;64750;52.134;5.424;2024-02-21T04:04:46;10.55;;;3.45;;
72085;SDS011;64750;52.134;5.424;2024-02-21T04:07:14;7.00;;;3.37;;
72085;SDS011;64750;52.134;5.424;2024-02-21T04:09:41;8.02;;;3.65;;
72085;SDS011;64750;52.134;5.424;2024-02-21T04:12:08;5.70;;;3.85;;
72085;SDS011;64750;52.134;5.424;2024-02-21T04:14:34;5.93;;;3.13;;
72085;SDS011;64750;52.134;5.424;2024-02-21T04:17:01;5.70;;;3.15;;
72085;SDS011;64750;52.134;5.424;2024-02-21T04:19:28;5.50;;;3.67;;
72085;SDS011;64750;52.134;5.424;2024-02-21T04:21:54;6.13;;;2.90;;
72085;SDS011;64750;52.134;5.424;2024-02-21T04:24:21;6.32;;;3.30;;
72085;SDS011;64750;52.134;5.424;2024-02-21T04:26:47;6.78;;;3.00;;
72085;SDS011;64750;52.134;5.424;2024-02-21T04:29:14;5.97;;;2.95;;
72085;SDS011;64750;52.134;5.424;2024-02-21T04:31:40;5.97;;;3.30;;
72085;SDS011;64750;52.134;5.424;2024-02-21T04:34:07;10.23;;;3.50;;
72085;SDS011;64750;52.134;5.424;2024-02-21T04:36:33;9.43;;;3.35;;
72085;SDS011;64750;52.134;5.424;2024-02-21T04:39:00;11.30;;;3.45;;
72085;SDS011;64750;52.134;5.424;2024-02-21T04:41:26;8.35;;;3.78;;
72085;SDS011;64750;52.134;5.424;2024-02-21T04:43:53;7.00;;;4.00;;
72085;SDS011;64750;52.134;5.424;2024-02-21T04:46:19;6.68;;;3.35;;
72085;SDS011;64750;52.134;5.424;2024-02-21T04:48:46;11.48;;;3.08;;
72085;SDS011;64750;52.134;5.424;2024-02-21T04:51:12;6.38;;;3.65;;
72085;SDS011;64750;52.134;5.424;2024-02-21T04:53:40;6.80;;;3.35;;
72085;SDS011;64750;52.134;5.424;2024-02-21T04:56:06;7.27;;;3.90;;
72085;SDS011;64750;52.134;5.424;2024-02-21T04:58:33;8.38;;;3.58;;
72085;SDS011;64750;52.134;5.424;2024-02-21T05:01:03;7.57;;;3.70;;
72085;SDS011;64750;52.134;5.424;2024-02-21T05:03:30;6.13;;;3.58;;
72085;SDS011;64750;52.134;5.424;2024-02-21T05:05:57;4.13;;;3.25;;
72085;SDS011;64750;52.134;5.424;2024-02-21T05:08:23;4.83;;;3.63;;
72085;SDS011;64750;52.134;5.424;2024-02-21T05:10:50;4.03;;;3.70;;
72085;SDS011;64750;52.134;5.424;2024-02-21T05:13:16;7.53;;;3.88;;
72085;SDS011;64750;52.134;5.424;2024-02-21T05:15:43;3.90;;;3.42;;
72085;SDS011;64750;52.134;5.424;2024-02-21T05:18:09;7.55;;;4.00;;
72085;SDS011;64750;52.134;5.424;2024-02-21T05:20:36;9.87;;;4.27;;
72085;SDS011;64750;52.134;5.424;2024-02-21T05:23:02;5.05;;;3.92;;
72085;SDS011;64750;52.134;5.424;2024-02-21T05:25:29;6.95;;;4.10;;
72085;SDS011;64750;52.134;5.424;2024-02-21T05:27:56;7.22;;;3.72;;
72085;SDS011;64750;52.134;5.424;2024-02-21T05:30:27;5.50;;;3.58;;
72085;SDS011;64750;52.134;5.424;2024-02-21T05:32:54;7.90;;;4.23;;
72085;SDS011;64750;52.134;5.424;2024-02-21T05:35:24;5.32;;;4.00;;
72085;SDS011;64750;52.134;5.424;2024-02-21T05:37:52;5.43;;;3.97;;
72085;SDS011;64750;52.134;5.424;2024-02-21T05:40:19;4.65;;;3.97;;
72085;SDS011;64750;52.134;5.424;2024-02-21T05:42:45;8.35;;;4.55;;
72085;SDS011;64750;52.134;5.424;2024-02-21T05:45:12;5.80;;;3.70;;
72085;SDS011;64750;52.134;5.424;2024-02-21T05:47:39;5.40;;;4.32;;
72085;SDS011;64750;52.134;5.424;2024-02-21T05:50:06;4.60;;;3.92;;
72085;SDS011;64750;52.134;5.424;2024-02-21T05:52:32;7.32;;;3.80;;
72085;SDS011;64750;52.134;5.424;2024-02-21T05:54:59;7.30;;;4.63;;
72085;SDS011;64750;52.134;5.424;2024-02-21T05:57:25;6.37;;;3.83;;
72085;SDS011;64750;52.134;5.424;2024-02-21T05:59:52;8.48;;;4.18;;
72085;SDS011;64750;52.134;5.424;2024-02-21T06:02:18;6.82;;;4.43;;
72085;SDS011;64750;52.134;5.424;2024-02-21T06:04:46;5.15;;;4.35;;
72085;SDS011;64750;52.134;5.424;2024-02-21T06:07:12;9.20;;;4.43;;
72085;SDS011;64750;52.134;5.424;2024-02-21T06:09:39;7.20;;;4.80;;
72085;SDS011;64750;52.134;5.424;2024-02-21T06:12:06;9.68;;;5.15;;
72085;SDS011;64750;52.134;5.424;2024-02-21T06:14:32;4.63;;;4.22;;
72085;SDS011;64750;52.134;5.424;2024-02-21T06:16:59;6.07;;;4.68;;
72085;SDS011;64750;52.134;5.424;2024-02-21T06:19:26;7.47;;;5.07;;
72085;SDS011;64750;52.134;5.424;2024-02-21T06:21:52;8.17;;;4.70;;
72085;SDS011;64750;52.134;5.424;2024-02-21T06:24:19;9.27;;;5.32;;
72085;SDS011;64750;52.134;5.424;2024-02-21T06:26:45;5.88;;;5.00;;
72085;SDS011;64750;52.134;5.424;2024-02-21T06:29:15;6.93;;;4.93;;
72085;SDS011;64750;52.134;5.424;2024-02-21T06:31:41;6.38;;;5.25;;
72085;SDS011;64750;52.134;5.424;2024-02-21T06:34:08;8.30;;;5.20;;
72085;SDS011;64750;52.134;5.424;2024-02-21T06:36:34;10.38;;;6.75;;
72085;SDS011;64750;52.134;5.424;2024-02-21T06:39:01;10.95;;;7.38;;
72085;SDS011;64750;52.134;5.424;2024-02-21T06:41:27;16.25;;;6.93;;
72085;SDS011;64750;52.134;5.424;2024-02-21T06:43:54;15.43;;;6.60;;
72085;SDS011;64750;52.134;5.424;2024-02-21T06:46:24;9.63;;;7.63;;
72085;SDS011;64750;52.134;5.424;2024-02-21T06:48:55;9.63;;;7.07;;
72085;SDS011;64750;52.134;5.424;2024-02-21T06:51:23;10.98;;;7.10;;
72085;SDS011;64750;52.134;5.424;2024-02-21T06:53:51;13.43;;;7.18;;
72085;SDS011;64750;52.134;5.424;2024-02-21T06:56:17;9.25;;;7.32;;
72085;SDS011;64750;52.134;5.424;2024-02-21T06:58:44;14.40;;;7.53;;
72085;SDS011;64750;52.134;5.424;2024-02-21T07:01:11;13.20;;;8.30;;
72085;SDS011;64750;52.134;5.424;2024-02-21T07:03:37;13.30;;;7.75;;
72085;SDS011;64750;52.134;5.424;2024-02-21T07:06:04;10.77;;;7.70;;
72085;SDS011;64750;52.134;5.424;2024-02-21T07:08:31;13.95;;;8.35;;
72085;SDS011;64750;52.134;5.424;2024-02-21T07:10:57;14.80;;;9.10;;
72085;SDS011;64750;52.134;5.424;2024-02-21T07:13:24;20.42;;;8.85;;
72085;SDS011;64750;52.134;5.424;2024-02-21T07:15:50;11.40;;;8.35;;
72085;SDS011;64750;52.134;5.424;2024-02-21T07:18:17;13.07;;;8.38;;
72085;SDS011;64750;52.134;5.424;2024-02-21T07:20:43;14.18;;;8.57;;
72085;SDS011;64750;52.134;5.424;2024-02-21T07:23:10;11.63;;;8.17;;
72085;SDS011;64750;52.134;5.424;2024-02-21T07:25:36;14.50;;;8.30;;
72085;SDS011;64750;52.134;5.424;2024-02-21T07:28:03;13.75;;;8.00;;
72085;SDS011;64750;52.134;5.424;2024-02-21T07:30:30;13.48;;;8.27;;
72085;SDS011;64750;52.134;5.424;2024-02-21T07:32:57;12.98;;;7.68;;
72085;SDS011;64750;52.134;5.424;2024-02-21T07:35:23;10.23;;;7.10;;
72085;SDS011;64750;52.134;5.424;2024-02-21T07:37:50;11.32;;;7.25;;
72085;SDS011;64750;52.134;5.424;2024-02-21T07:40:17;11.90;;;7.15;;
72085;SDS011;64750;52.134;5.424;2024-02-21T07:42:43;13.25;;;7.38;;
72085;SDS011;64750;52.134;5.424;2024-02-21T07:45:16;8.50;;;6.25;;
72085;SDS011;64750;52.134;5.424;2024-02-21T07:47:44;11.80;;;6.37;;
72085;SDS011;64750;52.134;5.424;2024-02-21T07:50:11;9.82;;;5.78;;
72085;SDS011;64750;52.134;5.424;2024-02-21T07:52:37;18.67;;;6.45;;
72085;SDS011;64750;52.134;5.424;2024-02-21T07:55:04;10.93;;;5.90;;
72085;SDS011;64750;52.134;5.424;2024-02-21T07:57:31;8.10;;;6.00;;
72085;SDS011;64750;52.134;5.424;2024-02-21T07:59:57;17.07;;;6.30;;
72085;SDS011;64750;52.134;5.424;2024-02-21T08:02:24;13.02;;;6.63;;
72085;SDS011;64750;52.134;5.424;2024-02-21T08:04:50;12.30;;;6.60;;
72085;SDS011;64750;52.134;5.424;2024-02-21T08:07:17;10.60;;;6.28;;
72085;SDS011;64750;52.134;5.424;2024-02-21T08:09:43;14.90;;;6.63;;
72085;SDS011;64750;52.134;5.424;2024-02-21T08:12:09;9.90;;;5.90;;
72085;SDS011;64750;52.134;5.424;2024-02-21T08:14:36;11.65;;;6.25;;
72085;SDS011;64750;52.134;5.424;2024-02-21T08:17:03;17.33;;;6.72;;
72085;SDS011;64750;52.134;5.424;2024-02-21T08:19:30;11.55;;;6.57;;
72085;SDS011;64750;52.134;5.424;2024-02-21T08:21:58;9.52;;;6.10;;
72085;SDS011;64750;52.134;5.424;2024-02-21T08:24:24;12.47;;;6.73;;
72085;SDS011;64750;52.134;5.424;2024-02-21T08:26:52;9.82;;;6.38;;
72085;SDS011;64750;52.134;5.424;2024-02-21T08:29:18;6.13;;;5.53;;
72085;SDS011;64750;52.134;5.424;2024-02-21T08:31:45;12.10;;;6.47;;
72085;SDS011;64750;52.134;5.424;2024-02-21T08:34:11;13.95;;;6.82;;
72085;SDS011;64750;52.134;5.424;2024-02-21T08:36:40;8.67;;;6.53;;
72085;SDS011;64750;52.134;5.424;2024-02-21T08:39:06;11.02;;;6.70;;
72085;SDS011;64750;52.134;5.424;2024-02-21T08:41:35;10.63;;;8.18;;
72085;SDS011;64750;52.134;5.424;2024-02-21T08:44:24;16.98;;;7.65;;
72085;SDS011;64750;52.134;5.424;2024-02-21T08:46:54;14.52;;;7.03;;
72085;SDS011;64750;52.134;5.424;2024-02-21T08:49:21;11.43;;;7.33;;
72085;SDS011;64750;52.134;5.424;2024-02-21T08:51:48;9.85;;;7.50;;
72085;SDS011;64750;52.134;5.424;2024-02-21T08:54:15;8.70;;;6.95;;
72085;SDS011;64750;52.134;5.424;2024-02-21T08:56:41;11.43;;;7.47;;
72085;SDS011;64750;52.134;5.424;2024-02-21T08:59:08;18.88;;;8.88;;
72085;SDS011;64750;52.134;5.424;2024-02-21T09:01:34;13.70;;;7.30;;
72085;SDS011;64750;52.134;5.424;2024-02-21T09:04:02;12.80;;;7.15;;
72085;SDS011;64750;52.134;5.424;2024-02-21T09:06:29;11.73;;;7.03;;
72085;SDS011;64750;52.134;5.424;2024-02-21T09:08:56;10.63;;;5.80;;
72085;SDS011;64750;52.134;5.424;2024-02-21T09:11:24;9.77;;;6.60;;
72085;SDS011;64750;52.134;5.424;2024-02-21T09:13:51;12.60;;;5.90;;
72085;SDS011;64750;52.134;5.424;2024-02-21T09:16:17;9.32;;;5.68;;
72085;SDS011;64750;52.134;5.424;2024-02-21T09:18:44;7.07;;;6.28;;
72085;SDS011;64750;52.134;5.424;2024-02-21T09:21:10;9.27;;;5.78;;
72085;SDS011;64750;52.134;5.424;2024-02-21T09:23:37;9.27;;;5.88;;
72085;SDS011;64750;52.134;5.424;2024-02-21T09:26:03;7.40;;;5.80;;
72085;SDS011;64750;52.134;5.424;2024-02-21T09:28:30;8.90;;;6.05;;
72085;SDS011;64750;52.134;5.424;2024-02-21T09:30:57;11.57;;;5.90;;
72085;SDS011;64750;52.134;5.424;2024-02-21T09:33:24;7.68;;;5.10;;
72085;SDS011;64750;52.134;5.424;2024-02-21T09:35:58;9.02;;;5.90;;
72085;SDS011;64750;52.134;5.424;2024-02-21T09:38:25;10.30;;;5.57;;
72085;SDS011;64750;52.134;5.424;2024-02-21T09:43:36;8.40;;;5.93;;
72085;SDS011;64750;52.134;5.424;2024-02-21T09:46:06;9.45;;;4.88;;
72085;SDS011;64750;52.134;5.424;2024-02-21T09:48:54;9.48;;;5.43;;
72085;SDS011;64750;52.134;5.424;2024-02-21T09:51:30;7.57;;;5.60;;
72085;SDS011;64750;52.134;5.424;2024-02-21T09:54:00;8.18;;;4.78;;
72085;SDS011;64750;52.134;5.424;2024-02-21T09:56:41;7.85;;;5.13;;
72085;SDS011;64750;52.134;5.424;2024-02-21T09:59:08;7.65;;;4.93;;
72085;SDS011;64750;52.134;5.424;2024-02-21T10:01:35;6.30;;;4.97;;
72085;SDS011;64750;52.134;5.424;2024-02-21T10:04:02;11.77;;;4.63;;
72085;SDS011;64750;52.134;5.424;2024-02-21T10:06:31;8.32;;;5.10;;
72085;SDS011;64750;52.134;5.424;2024-02-21T10:08:58;10.55;;;5.35;;
72085;SDS011;64750;52.134;5.424;2024-02-21T10:11:25;7.22;;;4.40;;
72085;SDS011;64750;52.134;5.424;2024-02-21T10:14:05;5.13;;;4.60;;
72085;SDS011;64750;52.134;5.424;2024-02-21T10:16:32;6.83;;;4.53;;
72085;SDS011;64750;52.134;5.424;2024-02-21T10:19:00;5.38;;;4.82;;
72085;SDS011;64750;52.134;5.424;2024-02-21T10:21:26;5.78;;;3.88;;
72085;SDS011;64750;52.134;5.424;2024-02-21T10:23:53;5.32;;;4.05;;
72085;SDS011;64750;52.134;5.424;2024-02-21T10:26:19;6.57;;;4.47;;
72085;SDS011;64750;52.134;5.424;2024-02-21T10:28:47;6.83;;;4.17;;
72085;SDS011;64750;52.134;5.424;2024-02-21T10:31:21;7.63;;;4.40;;
72085;SDS011;64750;52.134;5.424;2024-02-21T10:33:57;7.03;;;3.92;;
72085;SDS011;64750;52.134;5.424;2024-02-21T10:36:25;5.40;;;3.88;;
72085;SDS011;64750;52.134;5.424;2024-02-21T10:38:52;3.90;;;3.60;;
72085;SDS011;64750;52.134;5.424;2024-02-21T10:41:19;4.03;;;3.30;;
72085;SDS011;64750;52.134;5.424;2024-02-21T10:43:50;3.75;;;3.33;;
72085;SDS011;64750;52.134;5.424;2024-02-21T10:46:20;4.82;;;3.75;;
72085;SDS011;64750;52.134;5.424;2024-02-21T10:49:04;5.43;;;4.00;;
72085;SDS011;64750;52.134;5.424;2024-02-21T10:51:43;5.13;;;3.15;;
72085;SDS011;64750;52.134;5.424;2024-02-21T10:54:20;3.73;;;2.90;;
72085;SDS011;64750;52.134;5.424;2024-02-21T10:56:50;3.75;;;2.88;;
72085;SDS011;64750;52.134;5.424;2024-02-21T10:59:17;6.70;;;3.15;;
72085;SDS011;64750;52.134;5.424;2024-02-21T11:01:44;4.45;;;2.83;;
72085;SDS011;64750;52.134;5.424;2024-02-21T11:04:11;3.83;;;2.83;;
72085;SDS011;64750;52.134;5.424;2024-02-21T11:06:40;3.20;;;2.90;;
72085;SDS011;64750;52.134;5.424;2024-02-21T11:09:09;4.97;;;3.60;;
72085;SDS011;64750;52.134;5.424;2024-02-21T11:11:43;5.13;;;3.83;;
72085;SDS011;64750;52.134;5.424;2024-02-21T11:16:47;4.07;;;3.63;;
72085;SDS011;64750;52.134;5.424;2024-02-21T11:19:21;6.80;;;4.00;;
72085;SDS011;64750;52.134;5.424;2024-02-21T11:21:51;4.95;;;4.40;;
72085;SDS011;64750;52.134;5.424;2024-02-21T11:24:29;4.35;;;4.00;;
72085;SDS011;64750;52.134;5.424;2024-02-21T11:27:07;5.18;;;3.63;;
72085;SDS011;64750;52.134;5.424;2024-02-21T11:29:55;5.10;;;4.00;;
72085;SDS011;64750;52.134;5.424;2024-02-21T11:32:24;4.07;;;3.67;;
72085;SDS011;64750;52.134;5.424;2024-02-21T11:35:01;5.15;;;3.70;;
72085;SDS011;64750;52.134;5.424;2024-02-21T11:37:35;4.30;;;3.97;;
72085;SDS011;64750;52.134;5.424;2024-02-21T11:40:06;4.93;;;4.00;;
72085;SDS011;64750;52.134;5.424;2024-02-21T11:42:36;7.88;;;4.18;;
72085;SDS011;64750;52.134;5.424;2024-02-21T11:45:03;4.90;;;4.30;;
72085;SDS011;64750;52.134;5.424;2024-02-21T11:47:30;3.90;;;3.60;;
72085;SDS011;64750;52.134;5.424;2024-02-21T11:49:56;4.20;;;3.80;;
72085;SDS011;64750;52.134;5.424;2024-02-21T11:52:23;5.20;;;3.85;;
72085;SDS011;64750;52.134;5.424;2024-02-21T11:54:52;6.65;;;4.82;;
72085;SDS011;64750;52.134;5.424;2024-02-21T11:57:19;4.23;;;3.93;;
72085;SDS011;64750;52.134;5.424;2024-02-21T11:59:46;7.10;;;4.80;;
72085;SDS011;64750;52.134;5.424;2024-02-21T12:02:13;6.60;;;4.28;;
72085;SDS011;64750;52.134;5.424;2024-02-21T12:04:40;5.25;;;4.13;;
72085;SDS011;64750;52.134;5.424;2024-02-21T12:07:08;4.80;;;4.25;;
72085;SDS011;64750;52.134;5.424;2024-02-21T12:09:35;7.07;;;4.67;;
72085;SDS011;64750;52.134;5.424;2024-02-21T12:12:02;5.55;;;4.90;;
72085;SDS011;64750;52.134;5.424;2024-02-21T12:14:31;10.13;;;4.75;;
72085;SDS011;64750;52.134;5.424;2024-02-21T12:16:59;7.43;;;4.43;;
72085;SDS011;64750;52.134;5.424;2024-02-21T12:19:30;7.95;;;4.38;;
72085;SDS011;64750;52.134;5.424;2024-02-21T12:21:59;8.70;;;4.77;;
72085;SDS011;64750;52.134;5.424;2024-02-21T12:24:26;6.82;;;4.45;;
72085;SDS011;64750;52.134;5.424;2024-02-21T12:26:54;5.45;;;4.43;;
72085;SDS011;64750;52.134;5.424;2024-02-21T12:29:21;6.43;;;4.03;;
72085;SDS011;64750;52.134;5.424;2024-02-21T12:31:49;5.32;;;4.22;;
72085;SDS011;64750;52.134;5.424;2024-02-21T12:34:15;5.43;;;4.27;;
72085;SDS011;64750;52.134;5.424;2024-02-21T12:36:56;5.90;;;3.92;;
72085;SDS011;64750;52.134;5.424;2024-02-21T12:39:22;5.55;;;3.90;;
72085;SDS011;64750;52.134;5.424;2024-02-21T12:41:49;7.68;;;3.90;;
72085;SDS011;64750;52.134;5.424;2024-02-21T12:44:15;5.57;;;4.05;;
72085;SDS011;64750;52.134;5.424;2024-02-21T12:46:44;4.30;;;3.93;;
72085;SDS011;64750;52.134;5.424;2024-02-21T12:49:11;4.47;;;3.85;;
72085;SDS011;64750;52.134;5.424;2024-02-21T12:51:37;3.97;;;3.42;;
72085;SDS011;64750;52.134;5.424;2024-02-21T12:54:05;6.60;;;3.58;;
72085;SDS011;64750;52.134;5.424;2024-02-21T12:56:32;3.92;;;3.53;;
72085;SDS011;64750;52.134;5.424;2024-02-21T12:58:58;4.40;;;3.40;;
72085;SDS011;64750;52.134;5.424;2024-02-21T13:01:25;5.93;;;4.15;;
72085;SDS011;64750;52.134;5.424;2024-02-21T13:03:52;5.68;;;3.53;;
72085;SDS011;64750;52.134;5.424;2024-02-21T13:06:20;4.82;;;3.95;;
72085;SDS011;64750;52.134;5.424;2024-02-21T13:08:46;6.70;;;3.65;;
72085;SDS011;64750;52.134;5.424;2024-02-21T13:11:13;6.23;;;3.30;;
72085;SDS011;64750;52.134;5.424;2024-02-21T13:13:40;4.30;;;3.10;;
72085;SDS011;64750;52.134;5.424;2024-02-21T13:16:06;4.70;;;3.30;;
72085;SDS011;64750;52.134;5.424;2024-02-21T13:18:34;7.32;;;2.92;;
72085;SDS011;64750;52.134;5.424;2024-02-21T13:21:04;4.68;;;3.95;;
72085;SDS011;64750;52.134;5.424;2024-02-21T13:23:31;6.07;;;3.17;;
72085;SDS011;64750;52.134;5.424;2024-02-21T13:25:57;7.60;;;3.15;;
72085;SDS011;64750;52.134;5.424;2024-02-21T13:28:24;4.07;;;2.75;;
72085;SDS011;64750;52.134;5.424;2024-02-21T13:30:50;5.78;;;2.75;;
72085;SDS011;64750;52.134;5.424;2024-02-21T13:33:17;5.30;;;3.00;;
72085;SDS011;64750;52.134;5.424;2024-02-21T13:35:43;5.10;;;2.90;;
72085;SDS011;64750;52.134;5.424;2024-02-21T13:38:10;4.78;;;2.53;;
72085;SDS011;64750;52.134;5.424;2024-02-21T13:40:37;7.00;;;3.78;;
72085;SDS011;64750;52.134;5.424;2024-02-21T13:43:03;5.72;;;3.00;;
72085;SDS011;64750;52.134;5.424;2024-02-21T13:45:31;6.53;;;3.30;;
72085;SDS011;64750;52.134;5.424;2024-02-21T13:47:58;4.53;;;2.73;;
72085;SDS011;64750;52.134;5.424;2024-02-21T13:50:29;5.25;;;2.80;;
72085;SDS011;64750;52.134;5.424;2024-02-21T13:52:57;5.45;;;2.95;;
72085;SDS011;64750;52.134;5.424;2024-02-21T13:55:24;3.40;;;3.05;;
72085;SDS011;64750;52.134;5.424;2024-02-21T13:57:53;4.72;;;2.88;;
72085;SDS011;64750;52.134;5.424;2024-02-21T14:00:19;7.07;;;2.87;;
72085;SDS011;64750;52.134;5.424;2024-02-21T14:02:46;3.42;;;2.83;;
72085;SDS011;64750;52.134;5.424;2024-02-21T14:05:13;7.53;;;3.47;;
72085;SDS011;64750;52.134;5.424;2024-02-21T14:07:40;5.78;;;2.78;;
72085;SDS011;64750;52.134;5.424;2024-02-21T14:10:08;5.45;;;2.35;;
72085;SDS011;64750;52.134;5.424;2024-02-21T14:12:35;5.07;;;2.27;;
72085;SDS011;64750;52.134;5.424;2024-02-21T14:15:02;4.95;;;2.88;;
72085;SDS011;64750;52.134;5.424;2024-02-21T14:17:29;4.05;;;2.53;;
72085;SDS011;64750;52.134;5.424;2024-02-21T14:19:55;3.55;;;2.35;;
72085;SDS011;64750;52.134;5.424;2024-02-21T14:22:22;5.50;;;2.50;;
72085;SDS011;64750;52.134;5.424;2024-02-21T14:24:48;4.70;;;2.50;;
72085;SDS011;64750;52.134;5.424;2024-02-21T14:27:14;5.47;;;2.50;;
72085;SDS011;64750;52.134;5.424;2024-02-21T14:29:41;2.30;;;2.03;;
72085;SDS011;64750;52.134;5.424;2024-02-21T14:32:07;3.35;;;2.30;;
72085;SDS011;64750;52.134;5.424;2024-02-21T14:34:36;5.32;;;2.10;;
72085;SDS011;64750;52.134;5.424;2024-02-21T14:37:02;5.93;;;2.13;;
72085;SDS011;64750;52.134;5.424;2024-02-21T14:39:30;9.45;;;2.80;;
72085;SDS011;64750;52.134;5.424;2024-02-21T14:41:56;3.50;;;2.45;;
72085;SDS011;64750;52.134;5.424;2024-02-21T14:44:23;3.88;;;2.30;;
72085;SDS011;64750;52.134;5.424;2024-02-21T14:46:49;3.25;;;2.03;;
72085;SDS011;64750;52.134;5.424;2024-02-21T14:49:16;6.97;;;2.80;;
72085;SDS011;64750;52.134;5.424;2024-02-21T14:51:46;5.97;;;2.35;;
72085;SDS011;64750;52.134;5.424;2024-02-21T14:54:13;4.05;;;1.98;;